Time;durP1;ratioP1;P1;durP2;ratioP2;P2;SDS_P1;SDS_P2;PMS_P1;PMS_P2;Temp;Humidity;BMP_temperature;BMP_pressure;BME280_temperature;BME280_humidity;BME280_pressure;Samples;Min_cycle;Max_cycle;Signal;HPM_P1;HPM_P2
2021/12/19 00:08:28;;;;;;;;;18.20;15.60;;;;;7.18;89.24;101713.41;5091700;28;8869;-57
2021/12/19 00:10:30;;;;;;;;;13.40;12.80;;;;;7.20;89.13;101705.41;5091547;28;8838;-57
2021/12/19 00:12:59;;;;;;;;;17.00;15.00;;;;;7.20;88.65;101706.25;5092381;28;9476;-57
2021/12/19 00:15:26;;;;;;;;;10.40;7.00;;;;;7.21;88.82;101701.84;5092612;28;8850;-57
2021/12/19 00:17:54;;;;;;;;;12.20;12.00;;;;;7.20;89.03;101700.97;5092635;28;8826;-57
2021/12/19 00:20:22;;;;;;;;;14.80;12.80;;;;;7.22;89.16;101703.56;5091650;28;8870;-57
2021/12/19 00:23:09;;;;;;;;;15.40;12.20;;;;;7.21;88.71;101697.38;5092928;28;9000;-57
2021/12/19 00:25:37;;;;;;;;;17.80;13.40;;;;;7.22;88.81;101701.78;5092031;28;8869;-57
2021/12/19 00:28:05;;;;;;;;;16.20;15.00;;;;;7.22;88.91;101698.28;5092311;28;8968;-57
2021/12/19 00:30:33;;;;;;;;;15.80;13.00;;;;;7.23;88.77;101692.91;5092525;28;8842;-57
2021/12/19 00:33:00;;;;;;;;;3.00;3.00;;;;;7.23;88.78;101692.03;5092599;28;8871;-57
2021/12/19 00:35:28;;;;;;;;;10.00;9.60;;;;;7.23;88.92;101695.56;5092801;28;8866;-57
2021/12/19 00:37:56;;;;;;;;;12.20;12.20;;;;;7.22;88.38;101693.84;5091540;28;8854;-57
2021/12/19 00:40:23;;;;;;;;;12.00;9.80;;;;;7.22;89.21;101690.31;5090695;28;8834;-57
2021/12/19 00:43:02;;;;;;;;;4.80;4.40;;;;;7.22;89.06;101685.03;5091649;28;8876;-57
2021/12/19 00:45:32;;;;;;;;;9.00;8.20;;;;;7.22;88.84;101692.97;5091916;28;8857;-57
2021/12/19 00:47:59;;;;;;;;;15.00;13.40;;;;;7.21;88.87;101686.78;5092702;28;8992;-57
2021/12/19 00:50:27;;;;;;;;;14.60;12.20;;;;;7.20;88.89;101678.94;5092093;28;8907;-57
2021/12/19 00:52:55;;;;;;;;;6.80;6.00;;;;;7.20;88.61;101676.28;5090818;28;8862;-57
2021/12/19 00:55:23;;;;;;;;;18.60;18.00;;;;;7.20;88.88;101673.63;5092063;28;8892;-57
2021/12/19 00:57:50;;;;;;;;;14.60;12.00;;;;;7.19;89.01;101672.75;5089264;28;9223;-57
2021/12/19 01:00:18;;;;;;;;;18.40;14.20;;;;;7.20;88.83;101670.97;5091255;28;8915;-57
2021/12/19 01:02:46;;;;;;;;;21.00;19.00;;;;;7.20;89.12;101666.53;5091106;28;8869;-57
2021/12/19 01:05:14;;;;;;;;;17.40;13.00;;;;;7.22;88.80;101669.13;5091853;28;8858;-57
2021/12/19 01:07:42;;;;;;;;;15.20;13.00;;;;;7.22;88.56;101666.47;5092110;28;8965;-57
2021/12/19 01:10:09;;;;;;;;;18.20;17.20;;;;;7.23;88.72;101657.59;5092506;28;8854;-57
2021/12/19 01:12:40;;;;;;;;;14.00;11.20;;;;;7.21;88.97;101652.34;5092067;28;9508;-57
2021/12/19 01:15:08;;;;;;;;;16.40;13.80;;;;;7.21;88.86;101655.00;5091731;28;8846;-57
2021/12/19 01:17:35;;;;;;;;;9.60;7.80;;;;;7.23;89.32;101657.59;5092417;28;8841;-57
2021/12/19 01:20:03;;;;;;;;;15.20;12.80;;;;;7.22;89.26;101654.09;5092197;28;8854;-57
2021/12/19 01:22:31;;;;;;;;;15.60;12.60;;;;;7.23;89.13;101647.00;5092835;28;8850;-57
2021/12/19 01:24:59;;;;;;;;;12.80;12.40;;;;;7.23;89.09;101654.97;5091805;28;8838;-57
2021/12/19 01:27:26;;;;;;;;;13.80;12.80;;;;;7.23;89.23;101654.97;5092384;28;8850;-57
2021/12/19 01:29:54;;;;;;;;;10.40;8.20;;;;;7.24;89.21;101659.31;5092990;28;8867;-57
2021/12/19 01:32:22;;;;;;;;;10.60;10.20;;;;;7.25;89.22;101650.44;5093072;28;8880;-57
2021/12/19 01:34:50;;;;;;;;;14.80;12.00;;;;;7.24;88.68;101651.38;5092086;28;8865;-57
2021/12/19 01:37:17;;;;;;;;;11.60;11.20;;;;;7.25;88.71;101650.44;5091300;28;8861;-57
2021/12/19 01:39:45;;;;;;;;;15.20;15.20;;;;;7.26;88.91;101661.00;5092283;28;8860;-57
2021/12/19 01:42:13;;;;;;;;;15.80;14.60;;;;;7.26;88.84;101652.19;5090442;28;8849;-57
2021/12/19 01:44:40;;;;;;;;;11.40;11.20;;;;;7.27;88.98;101653.94;5091982;28;8860;-57
2021/12/19 01:47:10;;;;;;;;;15.40;14.60;;;;;7.26;88.98;101657.47;5090670;28;8853;-57
2021/12/19 01:49:38;;;;;;;;;12.00;11.20;;;;;7.27;88.78;101656.56;5090625;28;8914;-57
2021/12/19 01:52:06;;;;;;;;;10.60;10.20;;;;;7.28;88.34;101655.66;5091525;28;8868;-57
2021/12/19 01:54:34;;;;;;;;;12.40;8.60;;;;;7.28;88.84;101647.69;5091471;28;8884;-57
2021/12/19 01:57:01;;;;;;;;;13.80;12.20;;;;;7.29;88.95;101641.47;5090549;28;8899;-57
2021/12/19 01:59:29;;;;;;;;;14.40;13.20;;;;;7.29;88.60;101646.78;5091434;28;8868;-57
2021/12/19 02:01:57;;;;;;;;;8.60;6.80;;;;;7.27;88.61;101635.38;5091372;28;8838;-57
2021/12/19 02:04:29;;;;;;;;;10.80;6.40;;;;;7.24;88.45;101633.72;5089465;28;8870;-57
2021/12/19 02:06:57;;;;;;;;;6.00;5.40;;;;;7.24;89.07;101630.19;5091458;28;8973;-57
2021/12/19 02:09:25;;;;;;;;;5.60;4.40;;;;;7.22;88.62;101629.38;5091166;28;8852;-57
2021/12/19 02:11:53;;;;;;;;;4.40;4.40;;;;;7.21;88.97;101633.81;5091863;28;8841;-57
2021/12/19 02:14:21;;;;;;;;;6.00;4.40;;;;;7.20;89.12;101626.78;5091533;28;8850;-57
2021/12/19 02:16:48;;;;;;;;;4.50;3.75;;;;;7.21;89.08;101627.66;5090661;28;8846;-57
2021/12/19 02:19:16;;;;;;;;;9.80;8.20;;;;;7.20;88.67;101629.44;5091336;28;8842;-57
2021/12/19 02:21:44;;;;;;;;;10.40;6.40;;;;;7.21;88.89;101632.97;5092143;28;8864;-57
2021/12/19 02:24:12;;;;;;;;;4.00;4.00;;;;;7.20;89.11;101626.78;5090338;28;8943;-57
2021/12/19 02:26:39;;;;;;;;;7.50;7.50;;;;;7.20;88.81;101623.28;5091227;28;8842;-57
2021/12/19 02:29:07;;;;;;;;;3.60;1.00;;;;;7.20;89.12;101618.84;5090929;28;8837;-57
2021/12/19 02:31:35;;;;;;;;;8.40;8.20;;;;;7.20;89.15;101615.34;5091425;28;9005;-57
2021/12/19 02:34:07;;;;;;;;;6.80;6.00;;;;;7.19;89.14;101616.28;5091008;28;8818;-57
2021/12/19 02:36:48;;;;;;;;;6.00;6.00;;;;;7.15;89.07;101607.59;5091171;28;8951;-57
2021/12/19 02:39:37;;;;;;;;;5.20;3.20;;;;;7.15;88.82;101598.75;5091389;28;8846;-57
2021/12/19 02:50:20;;;;;;;;;2.60;2.60;;;;;7.11;89.02;101591.84;5090593;28;8907;-57
2021/12/19 02:52:48;;;;;;;;;4.00;2.20;;;;;7.10;88.91;101590.13;5090344;28;8864;-57
2021/12/19 02:55:16;;;;;;;;;4.40;4.00;;;;;7.10;88.90;101584.81;5090019;28;8838;-57
2021/12/19 02:57:44;;;;;;;;;3.20;3.20;;;;;7.09;89.42;101588.41;5090806;28;8950;-57
2021/12/19 03:00:11;;;;;;;;;3.00;2.80;;;;;7.10;89.27;101585.69;5090600;28;9476;-57
2021/12/19 03:02:39;;;;;;;;;4.00;4.00;;;;;7.09;89.18;101585.75;5090986;28;8864;-57
2021/12/19 03:05:07;;;;;;;;;5.60;5.60;;;;;7.09;89.17;101586.63;5091045;28;8845;-57
2021/12/19 03:07:39;;;;;;;;;3.80;1.40;;;;;7.10;88.87;101582.19;5090468;28;8861;-57
2021/12/19 03:10:26;;;;;;;;;3.00;3.00;;;;;7.10;88.94;101583.06;5090366;28;8848;-57
2021/12/19 03:13:05;;;;;;;;;3.75;3.75;;;;;7.10;88.86;101579.53;5090996;28;8845;-57
2021/12/19 03:18:18;;;;;;;;;4.40;4.40;;;;;7.10;89.02;101576.88;5090814;28;8860;-57
2021/12/19 03:20:47;;;;;;;;;1.00;1.00;;;;;7.10;89.16;101571.59;5091147;28;8842;-57
2021/12/19 03:23:14;;;;;;;;;3.80;3.00;;;;;7.09;88.79;101570.75;5094876;28;8845;-57
2021/12/19 03:25:42;;;;;;;;;8.00;6.00;;;;;7.09;89.27;101565.44;5094324;28;8850;-57
2021/12/19 03:28:10;;;;;;;;;5.00;3.00;;;;;7.09;89.33;101564.56;5095282;28;8861;-57
2021/12/19 03:30:37;;;;;;;;;3.40;1.40;;;;;7.10;89.14;101561.00;5094485;28;8872;-57
2021/12/19 03:33:05;;;;;;;;;4.80;4.80;;;;;7.10;89.07;101561.00;5093516;28;8869;-57
2021/12/19 03:35:33;;;;;;;;;5.20;5.20;;;;;7.11;88.98;101557.41;5094316;28;8885;-57
2021/12/19 03:38:01;;;;;;;;;5.20;4.00;;;;;7.11;88.92;101554.75;5094756;28;8964;-57
2021/12/19 03:40:36;;;;;;;;;6.00;6.00;;;;;7.11;89.25;101545.03;5094206;28;8857;-57
2021/12/19 03:43:04;;;;;;;;;4.00;4.00;;;;;7.12;88.95;101545.91;5093194;28;8849;-57
2021/12/19 03:45:32;;;;;;;;;5.20;3.60;;;;;7.11;89.27;101533.56;5094412;28;8834;-57
2021/12/19 03:47:59;;;;;;;;;3.25;3.00;;;;;7.11;88.94;101537.09;5093256;28;8846;-57
2021/12/19 03:50:27;;;;;;;;;4.80;4.80;;;;;7.13;89.17;101545.00;5093326;28;8927;-57
2021/12/19 03:52:55;;;;;;;;;6.40;6.40;;;;;7.12;89.15;101535.31;5094691;28;8896;-57
2021/12/19 03:55:24;;;;;;;;;9.00;6.40;;;;;7.12;88.90;101532.69;5093802;28;8845;-57
2021/12/19 03:57:52;;;;;;;;;7.00;6.00;;;;;7.11;89.00;101520.34;5093228;28;8852;-57
2021/12/19 04:00:23;;;;;;;;;3.00;3.00;;;;;7.08;89.18;101524.00;5093277;28;8867;-57
2021/12/19 04:02:52;;;;;;;;;2.20;2.20;;;;;7.04;88.82;101524.19;5093865;28;8887;-57
2021/12/19 04:05:20;;;;;;;;;1.00;1.00;;;;;6.98;88.89;101527.91;5094202;28;8865;-57
2021/12/19 04:07:48;;;;;;;;;3.00;2.00;;;;;6.95;89.01;101527.16;5093682;28;8822;-57
2021/12/19 04:10:16;;;;;;;;;1.00;1.00;;;;;6.91;89.10;101522.94;5093095;28;8854;-57
2021/12/19 04:12:44;;;;;;;;;1.00;1.00;;;;;6.87;89.32;101521.31;5093465;28;8838;-57
2021/12/19 04:15:11;;;;;;;;;3.60;3.60;;;;;6.84;89.23;101522.28;5093109;28;8834;-57
2021/12/19 04:17:39;;;;;;;;;2.25;2.25;;;;;6.80;89.16;101520.69;5093153;28;8869;-57
2021/12/19 04:20:07;;;;;;;;;1.00;1.00;;;;;6.78;89.46;101516.38;5093397;28;8842;-57
2021/12/19 04:22:35;;;;;;;;;3.00;3.00;;;;;6.75;89.40;101517.34;5093489;28;8834;-57
2021/12/19 04:25:02;;;;;;;;;1.00;1.00;;;;;6.73;89.87;101516.56;5093141;28;8876;-57
2021/12/19 04:27:30;;;;;;;;;1.40;1.40;;;;;6.72;89.50;101519.25;5093937;28;8838;-57
2021/12/19 04:29:57;;;;;;;;;1.00;1.00;;;;;6.71;89.51;101520.19;5091766;28;8838;-57
2021/12/19 04:32:31;;;;;;;;;1.00;1.00;;;;;6.68;89.30;101505.28;5092269;28;8842;-57
2021/12/19 04:35:00;;;;;;;;;0.00;0.00;;;;;6.67;89.42;101514.16;5093095;28;9405;-57
2021/12/19 04:37:51;;;;;;;;;1.00;1.00;;;;;6.63;89.37;101506.38;5093261;28;8850;-57
2021/12/19 04:40:21;;;;;;;;;1.20;1.20;;;;;6.61;89.74;101513.53;5092746;28;8918;-57
2021/12/19 04:51:18;;;;;;;;;3.00;2.20;;;;;6.58;89.82;101503.03;5093104;28;8850;-57
2021/12/19 04:54:01;;;;;;;;;1.80;1.40;;;;;6.57;90.00;101502.19;5091930;28;10036;-57
2021/12/19 04:56:41;;;;;;;;;3.00;3.00;;;;;6.58;89.63;101508.34;5093775;28;9527;-57
2021/12/19 04:59:36;;;;;;;;;0.00;0.00;;;;;6.59;89.56;101496.88;5092717;28;8853;-57
2021/12/19 05:02:12;;;;;;;;;1.00;1.00;;;;;6.58;89.63;101485.41;5092077;28;8842;-57
2021/12/19 05:05:19;;;;;;;;;1.00;1.00;;;;;6.55;89.40;101493.47;5092382;28;8850;-57
2021/12/19 05:16:02;;;;;;;;;1.00;1.00;;;;;6.53;89.53;101491.78;5091917;28;8850;-57
2021/12/19 05:18:33;;;;;;;;;0.00;0.00;;;;;6.52;89.68;101490.91;5092192;28;8837;-57
2021/12/19 05:21:06;;;;;;;;;0.00;0.00;;;;;6.52;89.75;101485.63;5090695;28;8838;-57
2021/12/19 05:23:50;;;;;;;;;2.60;2.60;;;;;6.51;89.56;101488.34;5092003;28;8864;-57
2021/12/19 05:26:18;;;;;;;;;2.60;1.00;;;;;6.50;89.44;101483.97;5090993;28;9542;-57
2021/12/19 05:28:48;;;;;;;;;3.40;3.40;;;;;6.49;89.32;101487.53;5090197;28;8830;-57
2021/12/19 05:31:16;;;;;;;;;1.00;1.00;;;;;6.45;89.85;101485.94;5091604;28;8958;-57
2021/12/19 05:33:45;;;;;;;;;1.50;0.50;;;;;6.45;89.25;101480.66;5091085;28;8822;-57
2021/12/19 05:47:10;;;;;;;;;3.20;1.00;;;;;6.37;89.42;101470.34;5092411;28;8864;-57
2021/12/19 05:49:37;;;;;;;;;2.60;1.00;;;;;6.38;89.04;101471.22;5091486;28;8894;-57
2021/12/19 05:52:05;;;;;;;;;0.40;0.40;;;;;6.40;89.81;101475.53;5091116;28;8849;-57
2021/12/19 05:54:33;;;;;;;;;1.00;1.00;;;;;6.43;90.11;101478.06;5092338;28;8926;-57
2021/12/19 05:57:00;;;;;;;;;3.40;3.40;;;;;6.43;89.13;101480.69;5091225;28;8838;-57
2021/12/19 05:59:28;;;;;;;;;1.50;1.00;;;;;6.46;89.52;101483.22;5091630;28;8856;-57
2021/12/19 06:01:56;;;;;;;;;1.00;1.00;;;;;6.47;89.42;101474.38;5091714;28;8838;-57
2021/12/19 06:04:23;;;;;;;;;4.00;4.00;;;;;6.49;89.82;101485.75;5091187;28;8989;-57
2021/12/19 06:06:52;;;;;;;;;3.00;3.00;;;;;6.49;89.58;101471.66;5092114;28;8850;-57
2021/12/19 06:09:19;;;;;;;;;6.80;6.00;;;;;6.47;89.36;101470.84;5091249;28;8838;-57
2021/12/19 06:11:47;;;;;;;;;3.40;3.40;;;;;6.49;89.17;101479.59;5091866;28;8868;-57
2021/12/19 06:14:15;;;;;;;;;3.00;1.00;;;;;6.48;89.50;101469.94;5090710;28;8964;-57
2021/12/19 06:16:42;;;;;;;;;4.00;3.60;;;;;6.49;89.55;101461.06;5091936;28;8838;-57
2021/12/19 06:19:10;;;;;;;;;4.40;3.60;;;;;6.50;89.33;101471.59;5091780;28;9511;-57
2021/12/19 06:21:38;;;;;;;;;3.60;3.20;;;;;6.49;89.74;101459.31;5091648;28;8853;-57
2021/12/19 06:24:06;;;;;;;;;3.00;2.60;;;;;6.50;89.41;101460.16;5090861;28;8842;-57
2021/12/19 06:26:35;;;;;;;;;3.20;2.60;;;;;6.49;89.22;101453.13;5092190;28;8858;-57
2021/12/19 06:29:03;;;;;;;;;1.80;1.40;;;;;6.48;89.25;101449.66;5091869;28;8826;-57
2021/12/19 06:31:31;;;;;;;;;3.60;3.20;;;;;6.47;88.89;101453.22;5090880;28;8868;-57
2021/12/19 06:33:58;;;;;;;;;4.00;4.00;;;;;6.46;89.12;101455.91;5090295;28;8854;-57
2021/12/19 06:36:27;;;;;;;;;3.00;1.40;;;;;6.43;89.17;101442.78;5091246;28;9623;-57
2021/12/19 06:38:54;;;;;;;;;3.40;3.40;;;;;6.42;88.97;101438.41;5090124;28;8841;-57
2021/12/19 06:41:22;;;;;;;;;4.00;4.00;;;;;6.39;89.28;101434.13;5090870;28;9885;-57
2021/12/19 06:43:50;;;;;;;;;3.00;3.00;;;;;6.39;89.11;101434.13;5090774;28;8972;-57
2021/12/19 06:46:18;;;;;;;;;3.00;3.00;;;;;6.40;89.14;101432.31;5090583;28;8989;-57
2021/12/19 06:48:46;;;;;;;;;3.20;1.80;;;;;6.40;89.31;101435.84;5091325;28;8869;-57
2021/12/19 06:51:13;;;;;;;;;3.20;3.20;;;;;6.41;89.42;101426.13;5090161;28;8842;-57
2021/12/19 06:53:42;;;;;;;;;1.00;1.00;;;;;6.41;89.04;101424.34;5090350;28;8848;-57
2021/12/19 06:56:10;;;;;;;;;3.00;3.00;;;;;6.41;89.32;101426.13;5088386;28;8838;-57
2021/12/19 06:58:37;;;;;;;;;1.00;1.00;;;;;6.40;89.15;101406.75;5090985;28;8838;-57
2021/12/19 07:01:05;;;;;;;;;1.40;0.80;;;;;6.40;89.17;101419.97;5090903;28;8923;-57
2021/12/19 07:03:33;;;;;;;;;1.40;1.40;;;;;6.39;89.31;101422.69;5090304;28;8846;-57
2021/12/19 07:06:01;;;;;;;;;5.20;4.00;;;;;6.40;89.06;101424.41;5090848;28;8864;-57
2021/12/19 07:08:29;;;;;;;;;3.40;3.40;;;;;6.41;89.42;101426.13;5090795;28;8869;-57
2021/12/19 07:10:57;;;;;;;;;1.00;1.00;;;;;6.39;89.38;101423.56;5090765;28;9554;-57
2021/12/19 07:13:25;;;;;;;;;3.00;3.00;;;;;6.39;89.27;101417.38;5090552;28;8838;-57
2021/12/19 07:15:53;;;;;;;;;5.60;4.00;;;;;6.39;89.28;101422.69;5090985;28;8923;-57
2021/12/19 07:18:20;;;;;;;;;8.00;5.60;;;;;6.38;89.71;101415.66;5090825;28;8838;-57
2021/12/19 07:20:48;;;;;;;;;3.20;1.00;;;;;6.39;89.35;101423.56;5089140;28;8822;-57
2021/12/19 07:23:20;;;;;;;;;3.80;3.80;;;;;6.40;88.78;101413.81;5092203;28;8850;-57
2021/12/19 07:25:47;;;;;;;;;4.60;4.60;;;;;6.42;89.07;101422.53;5089819;28;8846;-57
2021/12/19 07:28:15;;;;;;;;;2.20;1.40;;;;;6.43;89.22;101427.78;5090961;28;8838;-57
2021/12/19 07:30:47;;;;;;;;;4.00;4.00;;;;;6.44;89.65;101428.66;5090131;28;9845;-57
2021/12/19 07:33:17;;;;;;;;;6.60;6.20;;;;;6.43;88.92;101424.25;5091105;28;8871;-57
2021/12/19 07:35:47;;;;;;;;;5.60;5.60;;;;;6.42;89.40;101428.72;5090122;28;8954;-57
2021/12/19 07:38:26;;;;;;;;;3.80;3.00;;;;;6.43;89.28;101435.72;5089368;28;8976;-57
2021/12/19 07:40:56;;;;;;;;;5.60;4.00;;;;;6.42;89.25;101426.06;5089192;28;8868;-57
2021/12/19 07:43:24;;;;;;;;;4.00;3.20;;;;;6.41;89.31;101421.69;5089958;28;8854;-57
2021/12/19 07:45:51;;;;;;;;;4.00;4.00;;;;;6.39;89.15;101422.69;5087980;28;8850;-57
2021/12/19 07:48:19;;;;;;;;;4.00;3.00;;;;;6.39;89.01;101412.09;5089620;28;8900;-57
2021/12/19 07:50:47;;;;;;;;;4.80;4.40;;;;;6.37;89.32;101409.50;5088816;28;8926;-56
2021/12/19 07:53:15;;;;;;;;;4.00;4.00;;;;;6.36;89.29;101405.13;5088483;28;8842;-57
2021/12/19 07:55:43;;;;;;;;;1.80;1.00;;;;;6.35;89.09;101410.47;5087240;28;8834;-57
2021/12/19 07:58:11;;;;;;;;;3.00;3.00;;;;;6.34;89.66;101412.28;5088559;28;8838;-56
2021/12/19 08:00:39;;;;;;;;;3.80;3.80;;;;;6.34;89.53;101412.28;5088550;28;8842;-57
2021/12/19 08:03:08;;;;;;;;;3.80;3.20;;;;;6.36;89.50;101406.94;5089755;28;8852;-57
2021/12/19 08:05:36;;;;;;;;;3.00;3.00;;;;;6.37;89.45;101413.94;5090406;28;8868;-57
2021/12/19 08:08:05;;;;;;;;;3.80;3.60;;;;;6.38;89.25;101394.50;5089001;28;8861;-57
2021/12/19 08:13:18;;;;;;;;;2.60;2.60;;;;;6.39;89.34;101406.81;5093014;28;8854;-57
2021/12/19 08:15:46;;;;;;;;;4.00;4.00;;;;;6.38;89.25;101391.84;5093232;28;8837;-57
2021/12/19 08:18:13;;;;;;;;;4.80;4.40;;;;;6.40;89.47;101395.28;5092261;28;9528;-57
2021/12/19 08:20:41;;;;;;;;;3.00;3.00;;;;;6.41;89.29;101394.38;5091937;28;8846;-57
2021/12/19 08:23:09;;;;;;;;;1.00;1.00;;;;;6.42;89.05;101390.78;5091504;28;8952;-57
2021/12/19 08:25:37;;;;;;;;;3.20;2.80;;;;;6.43;89.40;101389.88;5091347;28;8850;-57
2021/12/19 08:28:04;;;;;;;;;4.80;4.80;;;;;6.44;89.26;101394.28;5092331;28;8860;-57
2021/12/19 08:30:32;;;;;;;;;4.00;3.20;;;;;6.44;89.17;101402.19;5091995;28;8980;-57
2021/12/19 08:33:00;;;;;;;;;5.20;3.00;;;;;6.45;89.13;101385.41;5092045;28;8862;-57
2021/12/19 08:35:27;;;;;;;;;4.20;3.40;;;;;6.46;89.08;101389.78;5092994;28;8877;-57
2021/12/19 08:37:55;;;;;;;;;6.80;6.00;;;;;6.49;89.32;101377.28;5091619;28;8858;-57
2021/12/19 08:40:24;;;;;;;;;3.40;3.40;;;;;6.50;89.09;101380.75;5092361;28;8862;-57
2021/12/19 08:42:52;;;;;;;;;4.20;4.20;;;;;6.50;88.72;101370.19;5092320;28;8853;-57
2021/12/19 08:45:20;;;;;;;;;3.00;3.00;;;;;6.53;88.81;101383.31;5092787;28;8960;-57
2021/12/19 08:47:48;;;;;;;;;3.60;3.20;;;;;6.56;89.21;101369.94;5091398;28;8838;-57
2021/12/19 08:50:16;;;;;;;;;5.60;4.00;;;;;6.58;88.83;101365.44;5090269;28;8964;-57
2021/12/19 08:52:44;;;;;;;;;0.60;0.60;;;;;6.61;88.81;101365.34;5090521;28;8834;-57
2021/12/19 08:55:11;;;;;;;;;4.80;3.40;;;;;6.63;88.61;101371.41;5090839;28;8847;-57
2021/12/19 08:57:39;;;;;;;;;4.00;4.00;;;;;6.65;89.10;101372.22;5091787;28;8976;-57
2021/12/19 09:00:07;;;;;;;;;5.20;3.80;;;;;6.66;88.93;101372.16;5091101;28;8907;-57
2021/12/19 09:02:35;;;;;;;;;1.00;0.60;;;;;6.68;88.82;101366.81;5091867;28;8838;-57
2021/12/19 09:05:03;;;;;;;;;4.00;4.00;;;;;6.67;88.70;101367.75;5091442;28;8988;-57
2021/12/19 09:07:31;;;;;;;;;4.00;3.60;;;;;6.71;89.15;101364.91;5091915;28;8964;-57
2021/12/19 09:09:58;;;;;;;;;4.80;4.00;;;;;6.75;88.76;101363.00;5091839;28;8853;-57
2021/12/19 09:12:27;;;;;;;;;5.20;4.00;;;;;6.78;88.64;101360.22;5091220;28;8976;-57
2021/12/19 09:14:55;;;;;;;;;7.80;7.80;;;;;6.79;88.31;101353.97;5091045;28;8984;-57
2021/12/19 09:17:23;;;;;;;;;5.20;3.00;;;;;6.76;88.61;101354.97;5090396;28;8984;-57
2021/12/19 09:19:50;;;;;;;;;5.60;3.20;;;;;6.77;88.85;101355.84;5090316;28;8841;-57
2021/12/19 09:22:18;;;;;;;;;3.20;3.20;;;;;6.78;88.96;101358.44;5091287;28;8960;-57
2021/12/19 09:24:46;;;;;;;;;3.00;1.80;;;;;6.81;88.56;101357.44;5092026;28;8850;-57
2021/12/19 09:27:14;;;;;;;;;6.00;4.40;;;;;6.84;88.20;101346.72;5092309;28;8867;-57
2021/12/19 09:29:41;;;;;;;;;3.00;3.00;;;;;6.83;88.77;101350.28;5091110;28;8857;-57
2021/12/19 09:32:09;;;;;;;;;3.20;3.20;;;;;6.82;88.45;101353.88;5091131;28;8862;-57
2021/12/19 09:34:37;;;;;;;;;6.00;4.00;;;;;6.81;88.97;101347.69;5090306;28;8866;-57
2021/12/19 09:37:04;;;;;;;;;6.20;5.60;;;;;6.83;88.78;101339.72;5089970;28;8862;-57
2021/12/19 09:39:33;;;;;;;;;4.00;4.00;;;;;6.87;88.46;101347.44;5090152;28;8885;-57
2021/12/19 09:42:06;;;;;;;;;3.00;3.00;;;;;6.90;88.37;101339.38;5090321;28;8854;-57
2021/12/19 09:44:34;;;;;;;;;5.40;3.80;;;;;6.92;88.56;101332.25;5089177;28;8895;-57
2021/12/19 09:47:02;;;;;;;;;4.60;4.60;;;;;6.92;88.58;101332.25;5070342;28;8858;-57
2021/12/19 09:49:29;;;;;;;;;3.80;3.80;;;;;6.90;88.41;101331.44;5086693;28;8872;-57
2021/12/19 09:51:58;;;;;;;;;3.20;3.20;;;;;6.91;88.19;101332.31;5090181;28;8938;-57
2021/12/19 09:54:25;;;;;;;;;3.20;3.00;;;;;6.92;88.67;101331.38;5090014;28;8850;-57
2021/12/19 09:56:53;;;;;;;;;3.40;3.40;;;;;6.94;88.58;101326.84;5089615;28;8845;-57
2021/12/19 09:59:21;;;;;;;;;3.00;2.00;;;;;6.97;88.61;101326.75;5087359;28;8826;-57
2021/12/19 10:01:49;;;;;;;;;4.75;2.75;;;;;6.98;88.22;101317.88;5089602;28;8978;-57
2021/12/19 10:04:16;;;;;;;;;3.75;3.00;;;;;6.99;88.28;101332.84;5087548;28;8919;-57
2021/12/19 10:06:44;;;;;;;;;1.50;1.50;;;;;7.02;88.50;101319.44;5089481;28;9200;-57
2021/12/19 10:09:12;;;;;;;;;3.00;3.00;;;;;6.98;88.47;101318.72;5087958;28;8885;-57
2021/12/19 10:11:58;;;;;;;;;2.50;1.50;;;;;6.96;88.50;101315.28;5085213;28;8834;-57
2021/12/19 10:14:26;;;;;;;;;3.00;3.00;;;;;6.95;88.57;101315.34;5086583;28;8846;-57
2021/12/19 10:16:54;;;;;;;;;4.00;3.25;;;;;6.96;88.54;101317.09;5087710;28;8846;-57
2021/12/19 10:19:22;;;;;;;;;1.50;1.00;;;;;6.97;88.45;101302.91;5087915;28;8976;-57
2021/12/19 10:21:49;;;;;;;;;3.00;3.00;;;;;6.99;88.44;101309.00;5086684;28;9579;-57
2021/12/19 10:24:17;;;;;;;;;4.00;3.40;;;;;7.02;88.68;101306.22;5085978;28;9516;-57
2021/12/19 10:26:47;;;;;;;;;3.20;3.20;;;;;7.06;88.78;101294.56;5085479;28;8846;-57
2021/12/19 10:29:15;;;;;;;;;0.00;0.00;;;;;7.11;88.48;101296.09;5087477;28;8838;-57
2021/12/19 10:31:42;;;;;;;;;3.00;2.50;;;;;7.14;89.03;101295.94;5086406;28;8854;-57
2021/12/19 10:34:10;;;;;;;;;3.00;3.00;;;;;7.15;88.22;101302.09;5085462;28;8923;-57
2021/12/19 10:36:37;;;;;;;;;1.00;1.00;;;;;7.15;88.25;101288.88;5086694;28;8838;-58
2021/12/19 10:39:23;;;;;;;;;1.00;0.75;;;;;7.12;88.31;101289.00;5085561;28;9173;-58
2021/12/19 10:41:51;;;;;;;;;0.00;0.00;;;;;7.11;88.34;101289.91;5087970;28;8842;-57
2021/12/19 10:47:00;;;;;;;;;0.50;0.50;;;;;7.08;88.56;101282.13;5085428;28;8860;-57
2021/12/19 10:49:32;;;;;;;;;1.00;1.00;;;;;7.08;88.72;101288.28;5085065;28;8926;-57
2021/12/19 10:52:01;;;;;;;;;0.50;0.50;;;;;7.08;88.63;101285.63;5085812;28;8865;-57
2021/12/19 10:54:29;;;;;;;;;0.00;0.00;;;;;7.11;88.43;101279.31;5086493;28;8880;-57
2021/12/19 10:56:56;;;;;;;;;0.50;0.50;;;;;7.12;88.46;101283.72;5082174;28;8830;-57
2021/12/19 10:59:24;;;;;;;;;0.75;0.50;;;;;7.12;88.41;101258.06;5082524;28;8842;-58
2021/12/19 11:01:52;;;;;;;;;1.00;1.00;;;;;7.12;88.42;101262.53;5082821;28;8930;-57
2021/12/19 11:04:20;;;;;;;;;0.00;0.00;;;;;7.13;88.95;101253.66;5085499;28;8960;-57
2021/12/19 11:06:48;;;;;;;;;1.00;1.00;;;;;7.12;88.59;101258.06;5087322;28;8842;-57
2021/12/19 11:09:15;;;;;;;;;0.75;0.75;;;;;7.13;88.49;101257.13;5085772;28;8838;-57
2021/12/19 11:11:43;;;;;;;;;0.00;0.00;;;;;7.17;88.37;101257.88;5086615;28;8983;-57
2021/12/19 11:14:11;;;;;;;;;0.00;0.00;;;;;7.21;88.44;101251.50;5085703;28;8918;-57
2021/12/19 11:16:39;;;;;;;;;1.50;1.00;;;;;7.24;88.34;101249.59;5086050;28;8919;-57
2021/12/19 11:19:06;;;;;;;;;1.00;0.00;;;;;7.30;87.80;101240.50;5085126;28;8838;-57
2021/12/19 11:21:36;;;;;;;;;0.00;0.00;;;;;7.31;88.37;101236.91;5086263;28;8896;-57
2021/12/19 11:24:03;;;;;;;;;0.00;0.00;;;;;7.31;88.28;101227.19;5085393;28;8854;-57
2021/12/19 11:26:31;;;;;;;;;0.00;0.00;;;;;7.30;88.03;101222.81;5084875;28;8922;-57
2021/12/19 11:28:58;;;;;;;;;0.50;0.50;;;;;7.26;88.33;101229.19;5086259;28;8846;-57
2021/12/19 11:31:27;;;;;;;;;0.00;0.00;;;;;7.26;88.08;101233.59;5083510;28;8838;-57
2021/12/19 11:33:56;;;;;;;;;0.25;0.25;;;;;7.25;88.50;101232.75;5085403;28;8838;-57
2021/12/19 11:36:23;;;;;;;;;1.50;1.00;;;;;7.24;88.07;101230.16;5084505;28;8882;-57
2021/12/19 11:38:51;;;;;;;;;0.00;0.00;;;;;7.22;88.21;101221.44;5085335;28;9103;-57
2021/12/19 11:41:18;;;;;;;;;0.25;0.00;;;;;7.20;88.30;101223.31;5082297;28;8892;-57
2021/12/19 11:43:49;;;;;;;;;0.00;0.00;;;;;7.20;88.47;101223.31;5085749;28;8856;-58
2021/12/19 11:46:22;;;;;;;;;1.00;1.00;;;;;7.19;88.57;101224.25;5086865;28;9515;-58
2021/12/19 11:48:50;;;;;;;;;1.00;0.00;;;;;7.18;88.39;101210.13;5087489;28;8838;-57
2021/12/19 11:51:17;;;;;;;;;3.50;3.50;;;;;7.19;88.44;101205.69;5087259;28;9913;-57
2021/12/19 11:53:45;;;;;;;;;3.00;3.00;;;;;7.16;88.58;101214.66;5089185;28;8850;-57
2021/12/19 11:56:14;;;;;;;;;1.50;1.50;;;;;7.13;88.40;101206.81;5087143;28;8992;-57
2021/12/19 11:58:45;;;;;;;;;5.60;5.60;;;;;7.13;88.40;101205.97;5087158;28;8923;-58
2021/12/19 12:01:13;;;;;;;;;3.60;3.20;;;;;7.13;88.59;101198.88;5085922;28;8834;-57
2021/12/19 12:03:42;;;;;;;;;3.20;3.20;;;;;7.14;88.55;101200.59;5083755;28;8841;-57
2021/12/19 12:06:10;;;;;;;;;3.80;3.20;;;;;7.14;88.56;101197.09;5082309;28;8866;-57
2021/12/19 12:08:38;;;;;;;;;0.00;0.00;;;;;7.13;88.64;101195.38;5084638;28;9487;-57
2021/12/19 12:11:05;;;;;;;;;2.00;2.00;;;;;7.11;88.25;101183.97;5084764;28;8846;-57
2021/12/19 12:13:34;;;;;;;;;1.00;1.00;;;;;7.10;88.52;101185.78;5084558;28;8868;-58
2021/12/19 12:16:06;;;;;;;;;2.00;1.00;;;;;7.10;88.30;101176.97;5087541;28;8861;-58
2021/12/19 12:18:34;;;;;;;;;3.75;3.00;;;;;7.12;88.11;101175.13;5088196;28;9129;-57
2021/12/19 12:21:02;;;;;;;;;2.00;2.00;;;;;7.15;88.15;101169.69;5086773;28;8830;-58
2021/12/19 12:23:30;;;;;;;;;1.00;1.00;;;;;7.17;88.66;101154.56;5084763;28;8838;-57
2021/12/19 12:25:57;;;;;;;;;2.00;2.00;;;;;7.18;88.33;101150.97;5083883;28;8968;-57
2021/12/19 12:28:25;;;;;;;;;1.00;1.00;;;;;7.18;88.47;101150.97;5084331;28;9594;-58
2021/12/19 12:30:54;;;;;;;;;2.00;1.00;;;;;7.19;88.13;101147.44;5084093;28;8850;-58
2021/12/19 12:33:25;;;;;;;;;1.00;1.00;;;;;7.20;88.18;101149.16;5081131;28;8866;-57
2021/12/19 12:35:54;;;;;;;;;1.00;1.00;;;;;7.21;88.35;101135.81;5085756;28;8865;-58
2021/12/19 12:38:22;;;;;;;;;1.00;1.00;;;;;7.22;88.15;101129.59;5087366;28;8973;-57